Dauntless — AEGD — position and weather

sailwx.info

Track history (hours):
 
Tides and Currents Weather Stations Pressure Air Temp Water Temp Dewpoint Dewpoint Depression Visibility Wind Speed Wind Dir Waves Ship Positions

Dauntless

Last reported at 2017-Nov-18 18:00 UTC. Time now 2017-Nov-19 12:12 UTC.
Position N 40°04' W 074°54'.

Length 10 m.

Type: Dredging. MMSI: 366999309.

Date/timePositionNaut miles runAvg speedWind from/ knotsBaromVisibWave heightAir tempDewpointWater temp
2017-Nov-18 18:00N 40°04' W 074°54'1324.4
2017-Nov-18 17:29N 39°57' W 075°08'815.9
2017-Nov-18 16:59N 39°51' W 075°15'1425.3
2017-Nov-18 16:27N 39°44' W 075°30'0 0.7
2017-Nov-18 15:56N 39°44' W 075°30'0 0.6
2017-Nov-18 15:30N 39°44' W 075°30'0 0.2
2017-Nov-18 15:00N 39°44' W 075°30'0 0.3
2017-Nov-18 14:30N 39°44' W 075°30'816.5
2017-Nov-18 14:00N 39°50' W 075°23'4 8.6
2017-Nov-18 13:30N 39°51' W 075°18'611.7
2017-Nov-18 13:00N 39°53' W 075°10'1427.7
2017-Nov-18 12:30N 40°03' W 074°58'3 0.1
2017-Nov-17 15:48N 40°04' W 074°54'4 0.2
2017-Nov-16 19:19N 40°02' W 074°59'1 0.9
2017-Nov-16 18:38N 40°02' W 074°59'0 0.0
2017-Nov-15 19:42N 40°02' W 074°59'1 6.2
2017-Nov-15 19:30N 40°02' W 075°00'816.5
2017-Nov-15 19:00N 39°56' W 075°08'816.6
2017-Nov-15 18:31N 39°51' W 075°17'610.9
2017-Nov-15 18:00N 39°49' W 075°24'0 0.8
2017-Nov-15 17:30N 39°49' W 075°24'0 0.7
2017-Nov-15 17:00N 39°49' W 075°24'3 6.2
2017-Nov-15 16:30N 39°47' W 075°27'1 1.4
2017-Nov-15 16:00N 39°47' W 075°28'0 0.6
2017-Nov-15 15:30N 39°47' W 075°27'0 0.1
2017-Nov-15 15:00N 39°47' W 075°27'0 0.2
2017-Nov-15 14:30N 39°47' W 075°27'1 1.2
2017-Nov-15 14:00N 39°47' W 075°27'611.6
2017-Nov-15 13:30N 39°51' W 075°21'6 0.3
2017-Nov-14 19:04N 39°53' W 075°13'0 0.8
2017-Nov-14 19:00N 39°52' W 075°13'4 6.1
2017-Nov-14 18:20N 39°51' W 075°18'412.1
2017-Nov-14 18:00N 39°50' W 075°23'1 1.2
2017-Nov-14 17:30N 39°49' W 075°23'1 1.0
2017-Nov-14 17:00N 39°49' W 075°24'0 0.2
2017-Nov-14 16:30N 39°49' W 075°24'510.2
2017-Nov-14 16:00N 39°46' W 075°29'2 3.1
2017-Nov-14 15:30N 39°44' W 075°30'0 0.1
2017-Nov-14 15:00N 39°44' W 075°30'1 1.2
2017-Nov-14 14:30N 39°44' W 075°30'0 0.3
2017-Nov-14 14:00N 39°44' W 075°30'0 1.0
2017-Nov-14 13:30N 39°44' W 075°30'1121.7
2017-Nov-14 13:00N 39°51' W 075°19'5 9.8
2017-Nov-14 12:28N 39°53' W 075°13'0 0.0
2017-Nov-14 11:58N 39°53' W 075°13'  
2017-Nov-10 12:47N 40°07' W 074°50'4 0.3
2017-Nov-09 19:40N 40°05' W 074°54'720.0
2017-Nov-09 19:20N 40°01' W 075°02'618.2
2017-Nov-09 18:59N 39°57' W 075°08'4 9.3
2017-Nov-09 18:30N 39°53' W 075°10'713.4
2017-Nov-09 18:00N 39°51' W 075°18'1122.8
2017-Nov-09 17:30N 39°44' W 075°30'1 1.5
2017-Nov-09 17:00N 39°43' W 075°30'1 1.1
2017-Nov-09 16:30N 39°43' W 075°31'0 0.6
2017-Nov-09 16:00N 39°43' W 075°30'0 0.2
2017-Nov-09 15:30N 39°43' W 075°30'1 1.7
2017-Nov-09 15:00N 39°44' W 075°30'3 5.4
2017-Nov-09 14:30N 39°41' W 075°31'814.9
2017-Nov-09 14:00N 39°34' W 075°35'0 0.0
2017-Nov-09 13:30N 39°34' W 075°35'0 0.0
2017-Nov-08 19:06N 39°34' W 075°35'0 1.2
2017-Nov-08 19:01N 39°34' W 075°35'1020.2
2017-Nov-08 18:30N 39°44' W 075°30'0 0.8
2017-Nov-08 18:00N 39°44' W 075°30'  
Track history (hours):
 
Tides and Currents Weather Stations Pressure Air Temp Water Temp Dewpoint Dewpoint Depression Visibility Wind Speed Wind Dir Waves Ship Positions

Dauntless

Last reported at 2017-Nov-18 18:00 UTC. Time now 2017-Nov-19 12:12 UTC.
Position N 40°04' W 074°54'.

Length 10 m.

Type: Dredging. MMSI: 366999309.

Date/timePositionNaut miles runAvg speedWind from/ knotsBaromVisibWave heightAir tempDewpointWater temp
2017-Nov-18 18:00N 40°04' W 074°54'1324.4
2017-Nov-18 17:29N 39°57' W 075°08'815.9
2017-Nov-18 16:59N 39°51' W 075°15'1425.3
2017-Nov-18 16:27N 39°44' W 075°30'0 0.7
2017-Nov-18 15:56N 39°44' W 075°30'0 0.6
2017-Nov-18 15:30N 39°44' W 075°30'0 0.2
2017-Nov-18 15:00N 39°44' W 075°30'0 0.3
2017-Nov-18 14:30N 39°44' W 075°30'816.5
2017-Nov-18 14:00N 39°50' W 075°23'4 8.6
2017-Nov-18 13:30N 39°51' W 075°18'611.7
2017-Nov-18 13:00N 39°53' W 075°10'1427.7
2017-Nov-18 12:30N 40°03' W 074°58'3 0.1
2017-Nov-17 15:48N 40°04' W 074°54'4 0.2
2017-Nov-16 19:19N 40°02' W 074°59'1 0.9
2017-Nov-16 18:38N 40°02' W 074°59'0 0.0
2017-Nov-15 19:42N 40°02' W 074°59'1 6.2
2017-Nov-15 19:30N 40°02' W 075°00'816.5
2017-Nov-15 19:00N 39°56' W 075°08'816.6
2017-Nov-15 18:31N 39°51' W 075°17'610.9
2017-Nov-15 18:00N 39°49' W 075°24'0 0.8
2017-Nov-15 17:30N 39°49' W 075°24'0 0.7
2017-Nov-15 17:00N 39°49' W 075°24'3 6.2
2017-Nov-15 16:30N 39°47' W 075°27'1 1.4
2017-Nov-15 16:00N 39°47' W 075°28'0 0.6
2017-Nov-15 15:30N 39°47' W 075°27'0 0.1
2017-Nov-15 15:00N 39°47' W 075°27'0 0.2
2017-Nov-15 14:30N 39°47' W 075°27'1 1.2
2017-Nov-15 14:00N 39°47' W 075°27'611.6
2017-Nov-15 13:30N 39°51' W 075°21'6 0.3
2017-Nov-14 19:04N 39°53' W 075°13'0 0.8
2017-Nov-14 19:00N 39°52' W 075°13'4 6.1
2017-Nov-14 18:20N 39°51' W 075°18'412.1
2017-Nov-14 18:00N 39°50' W 075°23'1 1.2
2017-Nov-14 17:30N 39°49' W 075°23'1 1.0
2017-Nov-14 17:00N 39°49' W 075°24'0 0.2
2017-Nov-14 16:30N 39°49' W 075°24'510.2
2017-Nov-14 16:00N 39°46' W 075°29'2 3.1
2017-Nov-14 15:30N 39°44' W 075°30'0 0.1
2017-Nov-14 15:00N 39°44' W 075°30'1 1.2
2017-Nov-14 14:30N 39°44' W 075°30'0 0.3
2017-Nov-14 14:00N 39°44' W 075°30'0 1.0
2017-Nov-14 13:30N 39°44' W 075°30'1121.7
2017-Nov-14 13:00N 39°51' W 075°19'5 9.8
2017-Nov-14 12:28N 39°53' W 075°13'0 0.0
2017-Nov-14 11:58N 39°53' W 075°13'  
2017-Nov-10 12:47N 40°07' W 074°50'4 0.3
2017-Nov-09 19:40N 40°05' W 074°54'720.0
2017-Nov-09 19:20N 40°01' W 075°02'618.2
2017-Nov-09 18:59N 39°57' W 075°08'4 9.3
2017-Nov-09 18:30N 39°53' W 075°10'713.4
2017-Nov-09 18:00N 39°51' W 075°18'1122.8
2017-Nov-09 17:30N 39°44' W 075°30'1 1.5
2017-Nov-09 17:00N 39°43' W 075°30'1 1.1
2017-Nov-09 16:30N 39°43' W 075°31'0 0.6
2017-Nov-09 16:00N 39°43' W 075°30'0 0.2
2017-Nov-09 15:30N 39°43' W 075°30'1 1.7
2017-Nov-09 15:00N 39°44' W 075°30'3 5.4
2017-Nov-09 14:30N 39°41' W 075°31'814.9
2017-Nov-09 14:00N 39°34' W 075°35'0 0.0
2017-Nov-09 13:30N 39°34' W 075°35'0 0.0
2017-Nov-08 19:06N 39°34' W 075°35'0 1.2
2017-Nov-08 19:01N 39°34' W 075°35'1020.2
2017-Nov-08 18:30N 39°44' W 075°30'0 0.8
2017-Nov-08 18:00N 39°44' W 075°30'  

Dump ship's entire track history